createdAt,value
2022-07-26T00:01:37.411Z,22.77
2022-07-26T00:06:39.229Z,22.58
2022-07-26T00:11:41.122Z,22.40
2022-07-26T00:16:43.717Z,22.61
2022-07-26T00:21:45.419Z,22.70
2022-07-26T00:26:47.287Z,22.57
2022-07-26T00:31:49.063Z,22.59
2022-07-26T00:36:50.765Z,22.49
2022-07-26T00:41:52.866Z,22.50
2022-07-26T00:46:54.560Z,22.28
2022-07-26T00:51:56.225Z,22.35
2022-07-26T00:56:58.600Z,22.40
2022-07-26T01:02:00.502Z,22.42
2022-07-26T01:07:03.572Z,22.35
2022-07-26T01:12:16.901Z,22.25
2022-07-26T01:17:18.610Z,22.10
2022-07-26T01:22:20.476Z,22.13
2022-07-26T01:27:22.228Z,22.24
2022-07-26T01:32:23.915Z,21.78
2022-07-26T01:37:25.564Z,21.27
2022-07-26T01:42:27.237Z,21.16
2022-07-26T01:47:28.977Z,20.99
2022-07-26T01:52:30.748Z,21.03
2022-07-26T01:57:32.504Z,20.84
2022-07-26T02:02:34.449Z,21.13
2022-07-26T02:07:43.836Z,21.20
2022-07-26T02:12:46.402Z,21.05
2022-07-26T02:17:48.056Z,20.97
2022-07-26T02:22:49.698Z,21.10
2022-07-26T02:27:51.404Z,20.84
2022-07-26T02:32:53.077Z,20.83
2022-07-26T02:37:54.839Z,20.63
2022-07-26T02:42:56.643Z,20.93
2022-07-26T02:47:58.845Z,20.93
2022-07-26T02:53:00.620Z,20.59
2022-07-26T02:58:02.254Z,20.71
2022-07-26T03:03:04.066Z,20.88
2022-07-26T03:08:06.875Z,20.78
2022-07-26T03:13:08.677Z,20.86
2022-07-26T03:18:10.333Z,20.56
2022-07-26T03:23:11.964Z,20.78
2022-07-26T03:28:18.919Z,21.05
2022-07-26T03:33:21.083Z,21.13
2022-07-26T03:38:22.979Z,21.15
2022-07-26T03:43:24.725Z,20.73
2022-07-26T03:48:27.129Z,20.92
2022-07-26T03:53:28.819Z,20.85
2022-07-26T03:58:30.493Z,20.97
2022-07-26T04:03:32.190Z,20.67
2022-07-26T04:08:33.932Z,20.57
2022-07-26T04:13:36.697Z,20.57
2022-07-26T04:18:38.682Z,20.24
2022-07-26T04:23:40.353Z,20.34
2022-07-26T04:28:42.549Z,20.56
2022-07-26T04:33:44.280Z,20.58
2022-07-26T04:38:46.003Z,20.61
2022-07-26T04:43:47.681Z,20.74
2022-07-26T04:48:49.434Z,20.88
2022-07-26T04:53:51.439Z,20.84
2022-07-26T04:58:53.122Z,20.78
2022-07-26T05:03:54.756Z,20.75
2022-07-26T05:08:56.396Z,20.98
2022-07-26T05:13:58.042Z,21.20
2022-07-26T05:18:59.786Z,21.25
2022-07-26T05:24:01.464Z,21.48
2022-07-26T05:29:03.287Z,21.74
2022-07-26T05:34:05.223Z,21.69
2022-07-26T05:39:07.092Z,21.43
2022-07-26T05:44:10.631Z,21.72
2022-07-26T05:49:12.628Z,21.43
2022-07-26T05:54:14.301Z,21.70
2022-07-26T05:59:16.091Z,21.88
2022-07-26T06:04:17.853Z,22.11
2022-07-26T06:09:19.622Z,22.04
2022-07-26T06:14:22.945Z,22.06
2022-07-26T06:19:24.643Z,22.71
2022-07-26T06:24:26.355Z,23.18
2022-07-26T06:29:32.113Z,22.72
2022-07-26T06:34:34.252Z,22.59
2022-07-26T06:39:35.915Z,22.94
2022-07-26T06:44:37.557Z,23.47
2022-07-26T06:49:39.231Z,23.53
2022-07-26T06:54:40.980Z,23.98
2022-07-26T06:59:42.595Z,23.87
2022-07-26T07:04:44.331Z,23.48
2022-07-26T07:09:46.010Z,23.37
2022-07-26T07:14:47.634Z,23.80
2022-07-26T07:19:49.683Z,24.53
2022-07-26T07:24:51.426Z,23.89
2022-07-26T07:29:53.362Z,23.93
2022-07-26T07:34:57.779Z,24.88
2022-07-26T07:39:59.457Z,24.92
2022-07-26T07:45:01.160Z,25.15
2022-07-26T07:50:02.946Z,26.49
2022-07-26T07:55:36.904Z,24.52
2022-07-26T08:00:27.561Z,24.36
2022-07-26T08:05:29.367Z,24.24
2022-07-26T08:10:31.212Z,25.36
2022-07-26T08:15:34.352Z,26.15
2022-07-26T08:20:40.845Z,25.16
2022-07-26T08:25:55.083Z,25.08
2022-07-26T08:30:58.650Z,25.45
2022-07-26T08:36:00.413Z,25.17
2022-07-26T08:41:02.056Z,24.92
2022-07-26T08:46:03.865Z,24.11
2022-07-26T08:51:11.055Z,23.50
2022-07-26T08:56:13.332Z,27.75
2022-07-26T09:01:15.293Z,27.78
2022-07-26T09:06:20.320Z,26.04
2022-07-26T09:11:26.295Z,27.22
2022-07-26T09:16:29.342Z,27.67
2022-07-26T09:21:34.162Z,26.80
2022-07-26T09:26:36.041Z,28.05
2022-07-26T09:31:39.551Z,26.03
2022-07-26T09:36:55.172Z,25.35
2022-07-26T09:42:24.980Z,25.00
2022-07-26T09:47:18.954Z,24.87
2022-07-26T09:52:21.694Z,24.73
2022-07-26T09:57:23.446Z,28.90
2022-07-26T10:02:25.174Z,28.67
2022-07-26T10:07:27.130Z,27.43
2022-07-26T10:12:32.699Z,27.36
2022-07-26T10:17:42.379Z,26.02
2022-07-26T10:22:48.213Z,30.21
2022-07-26T10:27:52.401Z,28.37
2022-07-26T10:33:03.006Z,30.45
2022-07-26T10:38:11.758Z,27.44
2022-07-26T10:43:40.737Z,28.09
2022-07-26T10:49:06.514Z,26.53
2022-07-26T10:54:11.593Z,27.24
2022-07-26T10:59:13.631Z,26.41
2022-07-26T11:04:20.241Z,26.29
2022-07-26T11:09:23.613Z,27.05
2022-07-26T11:14:26.129Z,30.08
2022-07-26T11:19:29.367Z,30.96
2022-07-26T11:24:31.690Z,30.37
2022-07-26T11:29:38.779Z,27.73
2022-07-26T11:34:42.806Z,28.07
2022-07-26T11:39:44.456Z,28.26
2022-07-26T11:44:47.832Z,27.50
2022-07-26T11:50:00.143Z,29.51
2022-07-26T11:55:12.510Z,29.77
2022-07-26T12:00:14.984Z,31.17
2022-07-26T12:05:22.410Z,31.21
2022-07-26T12:10:24.502Z,31.94
2022-07-26T12:15:26.319Z,31.79
2022-07-26T12:20:28.311Z,31.91
2022-07-26T12:25:30.447Z,29.60
2022-07-26T12:30:36.025Z,29.52
2022-07-26T12:35:37.905Z,28.44
2022-07-26T12:40:42.584Z,31.86
2022-07-26T12:45:44.244Z,32.93
2022-07-26T12:50:45.929Z,32.20
2022-07-26T12:55:47.574Z,28.53
2022-07-26T13:00:49.229Z,28.56
2022-07-26T13:05:50.879Z,28.11
2022-07-26T13:10:55.589Z,27.61
2022-07-26T13:16:01.444Z,27.44
2022-07-26T13:21:03.114Z,27.04
2022-07-26T13:26:09.081Z,26.91
2022-07-26T13:31:12.833Z,26.64
2022-07-26T13:36:14.678Z,26.65
2022-07-26T13:41:16.409Z,25.94
2022-07-26T13:46:18.202Z,26.75
2022-07-26T13:51:19.948Z,26.97
2022-07-26T13:56:21.584Z,26.89
2022-07-26T14:01:23.309Z,26.98
2022-07-26T14:06:45.265Z,28.00
2022-07-26T14:11:47.135Z,27.08
2022-07-26T14:16:49.651Z,27.19
2022-07-26T14:21:59.836Z,27.04
2022-07-26T14:27:02.903Z,26.92
2022-07-26T14:32:05.254Z,26.63
2022-07-26T14:37:09.926Z,27.03
2022-07-26T14:42:29.097Z,27.14
2022-07-26T14:47:30.743Z,27.37
2022-07-26T14:52:32.485Z,27.24
2022-07-26T14:57:34.598Z,26.94
2022-07-26T15:02:46.863Z,26.68
2022-07-26T15:07:48.835Z,26.38
2022-07-26T15:12:50.482Z,26.32
2022-07-26T15:17:52.804Z,26.03
2022-07-26T15:22:54.616Z,26.07
2022-07-26T15:27:56.302Z,26.36
2022-07-26T15:32:58.993Z,26.21
2022-07-26T15:38:01.657Z,26.31
2022-07-26T15:43:03.331Z,26.17
2022-07-26T15:48:15.000Z,26.22
2022-07-26T15:53:18.934Z,25.60
2022-07-26T15:58:21.290Z,25.18
2022-07-26T16:03:23.106Z,25.41
2022-07-26T16:08:24.785Z,25.09
2022-07-26T16:13:26.481Z,25.03
2022-07-26T16:18:28.119Z,25.31
2022-07-26T16:23:30.221Z,25.45
2022-07-26T16:28:32.012Z,25.36
2022-07-26T16:33:33.803Z,24.82
2022-07-26T16:38:35.948Z,24.59
2022-07-26T16:43:37.598Z,24.64
2022-07-26T16:48:39.343Z,24.54
2022-07-26T16:53:41.394Z,24.76
2022-07-26T16:58:43.024Z,24.51
2022-07-26T17:03:45.139Z,24.66
2022-07-26T17:08:46.785Z,24.42
2022-07-26T17:13:48.809Z,24.37
2022-07-26T17:18:50.502Z,23.91
2022-07-26T17:23:52.599Z,23.89
2022-07-26T17:28:54.292Z,23.97
2022-07-26T17:33:55.950Z,23.36
2022-07-26T17:38:58.146Z,23.49
2022-07-26T17:44:04.810Z,23.71
2022-07-26T17:49:06.521Z,23.59
2022-07-26T17:54:08.977Z,23.42
2022-07-26T17:59:13.188Z,23.47
2022-07-26T18:04:16.681Z,23.34
2022-07-26T18:09:18.331Z,23.39
2022-07-26T18:14:19.985Z,23.40
2022-07-26T18:19:21.702Z,23.29
2022-07-26T18:24:23.339Z,23.08
2022-07-26T18:29:25.053Z,23.02
2022-07-26T18:34:27.131Z,22.96
2022-07-26T18:39:32.611Z,22.68
2022-07-26T18:44:37.181Z,22.64
2022-07-26T18:49:38.851Z,22.39
2022-07-26T18:54:42.183Z,22.13
2022-07-26T18:59:43.828Z,22.16
2022-07-26T19:04:45.481Z,22.10
2022-07-26T19:09:47.138Z,22.13
2022-07-26T19:14:48.791Z,22.03
2022-07-26T19:19:50.441Z,21.86
2022-07-26T19:24:52.691Z,21.53
2022-07-26T19:29:56.953Z,21.33
2022-07-26T19:34:58.607Z,21.04
2022-07-26T19:40:01.168Z,21.21
2022-07-26T19:45:03.085Z,20.88
2022-07-26T19:50:09.212Z,20.74
2022-07-26T19:55:10.942Z,20.62
2022-07-26T20:00:13.112Z,20.59
2022-07-26T20:05:14.879Z,20.58
2022-07-26T20:10:16.561Z,20.43
2022-07-26T20:15:18.268Z,20.44
2022-07-26T20:20:20.313Z,20.31
2022-07-26T20:25:23.410Z,20.25
2022-07-26T20:30:25.108Z,20.10
2022-07-26T20:35:26.805Z,19.77
2022-07-26T20:40:28.996Z,20.00
2022-07-26T20:45:30.666Z,19.75
2022-07-26T20:50:32.945Z,19.57
2022-07-26T20:55:34.596Z,19.66
2022-07-26T21:00:36.294Z,19.51
2022-07-26T21:05:37.940Z,19.53
2022-07-26T21:10:39.766Z,19.36
2022-07-26T21:15:42.465Z,19.57
2022-07-26T21:20:44.126Z,19.67
2022-07-26T21:25:45.812Z,19.32
2022-07-26T21:30:47.485Z,19.43
2022-07-26T21:35:49.207Z,19.41
2022-07-26T21:40:51.526Z,19.52
2022-07-26T21:45:53.252Z,19.78
2022-07-26T21:50:55.098Z,19.61
2022-07-26T21:55:57.308Z,19.55
2022-07-26T22:01:06.110Z,19.46
2022-07-26T22:06:09.354Z,19.78
2022-07-26T22:11:11.472Z,19.92
2022-07-26T22:16:13.129Z,19.96
2022-07-26T22:21:14.847Z,19.82
2022-07-26T22:26:16.553Z,19.76
2022-07-26T22:31:18.286Z,19.72
2022-07-26T22:36:20.015Z,19.57
2022-07-26T22:41:21.685Z,19.78
2022-07-26T22:46:27.805Z,20.03
2022-07-26T22:51:31.388Z,20.07
2022-07-26T22:56:33.027Z,20.16
2022-07-26T23:01:34.697Z,20.04
2022-07-26T23:06:36.388Z,20.08
2022-07-26T23:11:38.027Z,20.00
2022-07-26T23:16:39.717Z,19.91
2022-07-26T23:21:41.491Z,20.13
2022-07-26T23:26:43.322Z,19.89
2022-07-26T23:31:45.039Z,19.92
2022-07-26T23:36:46.777Z,20.04
2022-07-26T23:41:48.495Z,19.82
2022-07-26T23:46:50.184Z,19.77
2022-07-26T23:51:51.885Z,19.55
2022-07-26T23:56:53.593Z,19.53
